Jersey City, NJ (07097)

7:08 PM EDT on June 23, 2017 (GMT -0400)
Greenville Min. of Information Retrieval | | Change Station
Active Advisory: Severe Thunderstorm Watch

Elev 56 ft 40.71 °N, 74.09 °W | Updated 30 seconds ago

Rain
Rain
84.6 °F
Feels Like 91 °F
N
0.0
Wind Variable Wind from WSW

Today
High -- | Low -- °F
--% Chance of Precip.
Yesterday
High -- | Low -- °F
Precip. -- in
Pressure 29.63 in
Visibility 10.0 miles
Clouds Few 3500 ft
Mostly Cloudy 4800 ft
Mostly Cloudy 7500 ft
Mostly Cloudy 14000 ft
Mostly Cloudy 25000 ft
Heat Index 91 °F
Dew Point 73 °F
Humidity 69%
Rainfall 0.00 in
Snow Depth Not available.
5:25 AM 8:31 PM
Waning Crescent, 0% visible
METAR KEWR 232251Z 23011G17KT 10SM -RA FEW035 BKN048 BKN075 BKN140 BKN250 29/22 A2963 RMK AO2 RAB14 SLP033 P0000 T02940222
Pressure 29.63 in
Visibility 10.0 miles
Clouds Few 3500 ft
Mostly Cloudy 4800 ft
Mostly Cloudy 7500 ft
Mostly Cloudy 14000 ft
Mostly Cloudy 25000 ft
Heat Index 91 °F
Dew Point 73 °F
Humidity 69%
Rainfall 0.00 in
Snow Depth Not available.
5:25 AM 8:31 PM
Waning Crescent, 0% visible
METAR KEWR 232251Z 23011G17KT 10SM -RA FEW035 BKN048 BKN075 BKN140 BKN250 29/22 A2963 RMK AO2 RAB14 SLP033 P0000 T02940222

Get Your Daily Forecast Email!

Thanks for signing up!

Be on the lookout for a verification email in your inbox.

You'll start receiving severe weather alerts in your inbox..

×

10-Day Weather Forecast

Almanac

Astronomy

Jun. 23, 2017 Rise Set
Actual Time
Civil Twilight
Nautical Twilight
Astronomical Twilight
Moon
Length of Visible Light
Length of Day
Tomorrow will be .
, % of the Moon is Illuminated

Today's Extremes

State Highs State Lows

Community

WunderPhotos

Category 6

Welcome to Category 6. This is the collective home for Weather Underground's featured writeups by Dr. Jeff Masters (right), Bob Henson (left), Chris Burt, and other regular contributors.

Nearby

Air Quality

  Air Quality AQ Index Pollutant
Not available.

Snow Depth

Station Depth Elevation

Earthquake Activity

City Distance Mag. Time & Date
Minimum magnitude displayed is 2.5.

Coastal Water Temperatures

Place Temperature

Stations

Nearby Weather Stations

Station Location Temp. Windchill Dew Point Humidity Wind Precip. Elev Updated Type
                   

Watches & Warnings

Severe Thunderstorm Watch
Issued: 7:03 PM EDT Jun. 23, 2017 – National Weather Service

Severe Thunderstorm Watch 369 remains in effect until 1000 PM EDT
for the following locations


NJ
. New Jersey counties included are

Bergen Essex Hudson
Hunterdon Mercer Middlesex
Monmouth Morris Passaic
Somerset Sussex Union
Warren